»·PEaware :: N333ZS KSNA-KCRQ

N333ZS :: KSNA-KCRQ

FLIGHT INFORMATION

Flight Status: Arrived
Operator: Privately registered:
United States
More flights under this callsign
Pilot: Judd H. (29974)
Aircraft: CESSNA 182 SKYLANE
(C182)
More flights by this aircraft type
Origin: KSNA John Wayne-Orange Co
United States
Destination: KCRQ McClellan-Palomar
United States
More flights between these airports :: More routes between these airports
Route: +V23 OCN
File this flight plan on PilotEdge
Remarks:
Altitude:
(Current/Filed)
5,000ft
Speed:
(Current/Filed)
120kts
Departed: 21-Sep-20 05:41 PM
Arrived: 21-Sep-20 06:18 PM
Distance/Time
Traveled:
44nm/0:36
Distance/Time
To Go:
Arrived

Flight Plot

Page will automatically refresh every two minutes.


Map Options




Map Legend


Flown Route
Filed Route
Departure Airport
Arrival Airport
Navaid (VOR, NDB)
Fix

Horizontal Profiles

Position Reports

Time Latitude Longitude Heading Altitude Ground
Speed
21-Sep-20 17:28 33.675402 -117.871532 219 59ft 0kts
21-Sep-20 17:29 33.675398 -117.871536 219 59ft 0kts
21-Sep-20 17:30 33.675394 -117.871539 219 59ft 0kts
21-Sep-20 17:31 33.675391 -117.871543 219 59ft 0kts
21-Sep-20 17:32 33.675387 -117.871547 219 59ft 0kts
21-Sep-20 17:33 33.675383 -117.871551 219 59ft 0kts
21-Sep-20 17:34 33.675379 -117.871555 219 59ft 0kts
21-Sep-20 17:35 33.675375 -117.871559 219 59ft 0kts
21-Sep-20 17:36 33.675371 -117.871563 219 59ft 0kts
21-Sep-20 17:37 33.678751 -117.868472 24 59ft 31kts
21-Sep-20 17:38 33.680843 -117.866380 114 59ft 0kts
21-Sep-20 17:39 33.680839 -117.866370 113 59ft 2kts
21-Sep-20 17:40 33.673883 -117.869863 207 170ft 86kts
21-Sep-20 17:41 33.645614 -117.877906 181 895ft 117kts
21-Sep-20 17:42 33.611492 -117.878413 182 1478ft 127kts
21-Sep-20 17:43 33.577992 -117.880217 184 2039ft 116kts
21-Sep-20 17:44 33.545878 -117.882059 182 2660ft 115kts
21-Sep-20 17:45 33.514531 -117.877689 139 3193ft 118kts
21-Sep-20 17:46 33.506626 -117.840480 98 3962ft 117kts
21-Sep-20 17:47 33.503775 -117.801867 98 4664ft 117kts
21-Sep-20 17:48 33.501084 -117.761313 100 5003ft 133kts
21-Sep-20 17:50 33.494329 -117.718182 114 4979ft 130kts
21-Sep-20 17:51 33.472363 -117.685050 133 4978ft 126kts
21-Sep-20 17:52 33.447688 -117.655347 140 4980ft 125kts
21-Sep-20 17:53 33.421251 -117.627814 139 4987ft 126kts
21-Sep-20 17:54 33.395351 -117.599339 137 4990ft 126kts
21-Sep-20 17:55 33.369680 -117.570559 137 4989ft 126kts
21-Sep-20 17:56 33.343606 -117.542135 138 4987ft 126kts
21-Sep-20 17:57 33.317978 -117.513321 133 4989ft 127kts
21-Sep-20 17:58 33.295493 -117.480554 131 4990ft 127kts
21-Sep-20 17:59 33.271225 -117.449889 139 4990ft 127kts
21-Sep-20 18:00 33.245184 -117.421560 132 4987ft 127kts
21-Sep-20 18:01 33.245732 -117.379384 85 4994ft 131kts
21-Sep-20 18:02 33.250998 -117.336666 84 4817ft 128kts
21-Sep-20 18:03 33.255939 -117.293912 84 4317ft 131kts
21-Sep-20 18:04 33.260695 -117.250917 85 3682ft 130kts
21-Sep-20 18:05 33.265312 -117.209462 85 3388ft 118kts
21-Sep-20 18:06 33.270384 -117.167334 87 3395ft 135kts
21-Sep-20 18:07 33.264628 -117.123984 115 3392ft 134kts
21-Sep-20 18:07 33.253232 -117.089796 114 3389ft 134kts
21-Sep-20 18:09 33.226081 -117.050752 134 3385ft 130kts
21-Sep-20 18:10 33.198052 -117.033811 212 3397ft 124kts
21-Sep-20 18:10 33.173937 -117.053272 213 3394ft 126kts
21-Sep-20 18:11 33.158916 -117.089188 256 3389ft 127kts
21-Sep-20 18:12 33.152356 -117.130767 256 2857ft 117kts
21-Sep-20 18:13 33.146680 -117.165672 256 2240ft 101kts
21-Sep-20 18:14 33.141412 -117.198010 256 1666ft 98kts
21-Sep-20 18:15 33.136329 -117.229688 256 1108ft 96kts
21-Sep-20 18:16 33.131197 -117.262010 259 511ft 99kts
21-Sep-20 18:17 33.127366 -117.285495 258 303ft 34kts
21-Sep-20 18:18 33.126654 -117.284591 79 303ft 19kts
21-Sep-20 18:19 33.127614 -117.278566 78 303ft 16kts
21-Sep-20 18:20 33.127610 -117.275314 261 303ft 0kts
21-Sep-20 18:21 33.127607 -117.275355 264 303ft 0kts
21-Sep-20 18:22 33.127607 -117.275355 264 303ft 0kts

Navigation Log

Ident Type
Flight plan parsing failed, navigation log unavailable